Time;durP1;ratioP1;P1;durP2;ratioP2;P2;SDS_P1;SDS_P2;PMS_P1;PMS_P2;Temp;Humidity;BMP_temperature;BMP_pressure;BME280_temperature;BME280_humidity;BME280_pressure;Samples;Min_cycle;Max_cycle;Signal;HPM_P1;HPM_P2
2024/04/07 00:01:34;;;;;;;23.15;9.98;;;435.80;2355.20;;;;;;4984557;28;20477;-75
2024/04/07 00:04:00;;;;;;;17.77;9.00;;;435.80;2355.20;;;;;;4983657;28;20026;-74
2024/04/07 00:06:31;;;;;;;25.88;10.40;;;436.10;2355.20;;;;;;4982746;28;20029;-73
2024/04/07 00:08:57;;;;;;;27.58;13.23;;;435.80;2355.20;;;;;;4988006;28;20102;-73
2024/04/07 00:11:23;;;;;;;21.17;12.15;;;435.80;2355.20;;;;;;4990852;28;20038;-72
2024/04/07 00:13:49;;;;;;;20.33;11.27;;;435.80;2355.20;;;;;;4978381;28;20396;-73
2024/04/07 00:16:15;;;;;;;19.75;10.15;;;435.70;2355.20;;;;;;4981894;28;20484;-73
2024/04/07 00:18:41;;;;;;;23.85;14.38;;;435.60;2355.20;;;;;;4987102;28;20030;-73
2024/04/07 00:21:06;;;;;;;30.08;13.45;;;435.70;2355.20;;;;;;4985830;28;20037;-73
2024/04/07 00:23:32;;;;;;;25.98;12.73;;;435.70;2355.20;;;;;;4976215;28;20055;-72
2024/04/07 00:25:59;;;;;;;27.02;12.80;;;435.70;2355.20;;;;;;4991462;28;20069;-72
2024/04/07 00:28:25;;;;;;;21.20;11.18;;;435.60;2355.20;;;;;;4981047;28;20099;-73
2024/04/07 00:30:51;;;;;;;23.88;11.85;;;435.60;2355.20;;;;;;4975199;28;20476;-73
2024/04/07 00:33:17;;;;;;;23.70;11.55;;;435.70;2355.20;;;;;;4977572;28;20157;-78
2024/04/07 00:36:00;;;;;;;17.08;12.20;;;435.70;2355.20;;;;;;4974924;28;20030;-73
2024/04/07 00:38:27;;;;;;;25.48;10.38;;;435.80;2355.20;;;;;;4982203;28;20030;-73
2024/04/07 00:40:53;;;;;;;21.73;11.02;;;435.90;2355.20;;;;;;4980843;28;20031;-74
2024/04/07 00:43:20;;;;;;;16.23;9.13;;;436.00;2355.20;;;;;;4981906;28;20057;-72
2024/04/07 00:45:47;;;;;;;18.70;11.07;;;436.10;2355.20;;;;;;4992045;28;20503;-72
2024/04/07 00:48:17;;;;;;;21.35;10.80;;;436.10;2355.20;;;;;;4984113;28;20023;-73
2024/04/07 00:50:45;;;;;;;18.63;8.68;;;435.80;2355.20;;;;;;4983216;28;20033;-75
2024/04/07 00:53:11;;;;;;;18.00;10.30;;;435.60;2355.20;;;;;;4982566;28;20489;-74
2024/04/07 00:55:37;;;;;;;24.52;9.75;;;435.30;2355.20;;;;;;4986486;28;20492;-74
2024/04/07 00:58:03;;;;;;;17.95;9.32;;;435.50;2355.20;;;;;;4980717;28;20034;-73
2024/04/07 01:00:31;;;;;;;19.10;9.85;;;435.50;2355.20;;;;;;4988489;28;20034;-73
2024/04/07 01:02:56;;;;;;;20.38;9.48;;;435.50;2355.20;;;;;;4984430;28;20105;-76
2024/04/07 01:05:22;;;;;;;18.02;10.32;;;435.50;2355.20;;;;;;4984729;28;20023;-74
2024/04/07 01:07:49;;;;;;;16.52;9.10;;;435.60;2355.20;;;;;;4986046;28;20368;-73
2024/04/07 01:10:15;;;;;;;15.02;8.43;;;435.50;2355.20;;;;;;4988199;28;20140;-73
2024/04/07 01:12:51;;;;;;;24.17;10.02;;;435.50;2355.20;;;;;;4996669;28;20102;-74
2024/04/07 01:15:17;;;;;;;20.38;9.48;;;435.20;2355.20;;;;;;4995941;28;20468;-74
2024/04/07 01:17:43;;;;;;;15.65;8.88;;;410.50;2355.20;;;;;;4977262;28;20037;-73
2024/04/07 01:20:11;;;;;;;21.55;8.80;;;410.50;2355.20;;;;;;4960046;28;20034;-75
2024/04/07 01:22:38;;;;;;;21.42;9.48;;;410.20;2355.20;;;;;;4977200;28;20051;-73
2024/04/07 01:25:04;;;;;;;14.75;8.88;;;410.20;2355.20;;;;;;4977039;28;20034;-74
2024/04/07 01:27:30;;;;;;;19.10;8.75;;;410.00;2355.20;;;;;;4977172;28;20468;-78
2024/04/07 01:29:56;;;;;;;16.90;9.82;;;410.00;2355.20;;;;;;4977002;28;20026;-74
2024/04/07 01:32:21;;;;;;;16.60;9.25;;;410.20;2355.20;;;;;;4977025;28;20098;-74
2024/04/07 01:34:47;;;;;;;20.55;9.57;;;409.90;2355.20;;;;;;4976882;28;20565;-77
2024/04/07 01:37:13;;;;;;;20.63;10.65;;;409.70;2355.20;;;;;;4976923;28;20093;-75
2024/04/07 01:39:39;;;;;;;19.60;10.18;;;384.70;2329.60;;;;;;4959310;28;20038;-74
2024/04/07 01:42:05;;;;;;;21.38;10.10;;;384.70;2329.60;;;;;;4976847;28;20032;-78
2024/04/07 01:44:31;;;;;;;20.65;9.68;;;384.60;2329.60;;;;;;4976455;28;20031;-74
2024/04/07 01:46:56;;;;;;;13.15;8.82;;;384.40;2329.60;;;;;;4976208;28;20445;-74
2024/04/07 01:49:22;;;;;;;18.05;9.00;;;384.20;2329.60;;;;;;4976929;28;20029;-79
2024/04/07 01:51:48;;;;;;;17.30;7.97;;;384.00;2329.60;;;;;;4976609;28;20500;-76
2024/04/07 01:54:15;;;;;;;18.48;9.05;;;384.10;2329.60;;;;;;4959140;28;20037;-76
2024/04/07 01:56:41;;;;;;;17.63;8.90;;;384.10;2329.60;;;;;;4958808;28;20386;-75
2024/04/07 01:59:08;;;;;;;12.82;7.65;;;384.00;2329.60;;;;;;4976436;28;20038;-73
2024/04/07 02:01:34;;;;;;;16.17;8.50;;;384.20;2329.60;;;;;;4976371;28;20031;-76
2024/04/07 02:03:59;;;;;;;14.57;7.88;;;384.00;2329.60;;;;;;4976341;28;20029;-74
2024/04/07 02:06:25;;;;;;;17.55;7.85;;;384.10;2329.60;;;;;;4976472;28;20027;-74
2024/04/07 02:08:51;;;;;;;16.00;7.97;;;384.00;2329.60;;;;;;4976360;28;20508;-74
2024/04/07 02:11:17;;;;;;;17.17;7.43;;;384.00;2329.60;;;;;;4976368;28;20023;-74
2024/04/07 02:13:43;;;;;;;14.55;7.43;;;384.00;2329.60;;;;;;4976183;28;20512;-74
2024/04/07 02:16:10;;;;;;;21.95;7.32;;;384.10;2329.60;;;;;;4976151;28;20027;-78
2024/04/07 02:18:36;;;;;;;13.20;7.47;;;384.10;2329.60;;;;;;4976060;28;20023;-73
2024/04/07 02:21:02;;;;;;;16.33;7.63;;;384.00;2329.60;;;;;;4976107;28;20039;-74
2024/04/07 02:23:28;;;;;;;15.40;6.65;;;384.00;2329.60;;;;;;4975963;28;20106;-73
2024/04/07 02:25:53;;;;;;;18.15;6.88;;;384.00;2329.60;;;;;;4975626;28;20037;-73
2024/04/07 02:28:19;;;;;;;10.88;6.13;;;384.00;2329.60;;;;;;4975918;28;20035;-74
2024/04/07 02:30:46;;;;;;;14.20;6.45;;;384.00;2329.60;;;;;;4958278;28;20035;-78
2024/04/07 02:33:12;;;;;;;21.92;8.13;;;384.10;2329.60;;;;;;4975994;28;20472;-78
2024/04/07 02:35:38;;;;;;;13.95;8.00;;;384.30;2329.60;;;;;;4975954;28;20027;-75
2024/04/07 02:38:04;;;;;;;17.42;7.28;;;384.40;2329.60;;;;;;4975658;28;20022;-74
2024/04/07 02:40:30;;;;;;;17.63;7.63;;;384.50;2329.60;;;;;;4975698;28;20039;-74
2024/04/07 02:42:56;;;;;;;14.38;8.05;;;384.60;2329.60;;;;;;4975761;28;20027;-74
2024/04/07 02:48:09;;;;;;;20.15;7.80;;;384.70;2329.60;;;;;;4975554;28;20030;-76
2024/04/07 02:50:36;;;;;;;16.13;7.70;;;384.60;2329.60;;;;;;4977439;28;20018;-79
2024/04/07 02:53:02;;;;;;;18.88;7.57;;;384.60;2329.60;;;;;;4994292;28;20023;-73
2024/04/07 02:55:28;;;;;;;12.73;7.15;;;384.50;2329.60;;;;;;4994274;28;20049;-74
2024/04/07 02:57:55;;;;;;;14.70;7.82;;;384.40;2329.60;;;;;;4992405;28;20027;-74
2024/04/07 03:00:21;;;;;;;13.13;7.10;;;384.40;2329.60;;;;;;4991334;28;20030;-75
2024/04/07 03:02:47;;;;;;;13.73;7.97;;;384.30;2329.60;;;;;;4992431;28;20022;-74
2024/04/07 03:05:16;;;;;;;11.13;7.53;;;384.20;2329.60;;;;;;4992106;28;20030;-74
2024/04/07 03:07:42;;;;;;;16.77;7.45;;;384.30;2329.60;;;;;;4993624;28;20018;-73
2024/04/07 03:10:07;;;;;;;12.40;7.78;;;384.50;2329.60;;;;;;4990760;28;20038;-74
2024/04/07 03:12:34;;;;;;;14.48;8.30;;;384.60;2329.60;;;;;;4993931;28;20033;-73
2024/04/07 03:15:02;;;;;;;14.00;7.30;;;384.60;2329.60;;;;;;4990762;28;20061;-73
2024/04/07 03:17:28;;;;;;;17.13;8.70;;;384.50;2329.60;;;;;;4993903;28;20022;-74
2024/04/07 03:19:54;;;;;;;15.50;8.05;;;384.40;2329.60;;;;;;4989428;28;20509;-75
2024/04/07 03:22:20;;;;;;;21.05;8.43;;;384.60;2329.60;;;;;;4989779;28;20113;-78
2024/04/07 03:24:45;;;;;;;18.27;8.23;;;384.70;2329.60;;;;;;4981714;28;20034;-74
2024/04/07 03:27:11;;;;;;;11.80;7.57;;;384.80;2329.60;;;;;;4989717;28;20114;-74
2024/04/07 03:29:37;;;;;;;16.02;8.27;;;384.60;2329.60;;;;;;4990852;28;20084;-79
2024/04/07 03:32:04;;;;;;;15.32;8.52;;;384.50;2329.60;;;;;;4993167;28;20571;-73
2024/04/07 03:34:31;;;;;;;13.40;8.30;;;384.50;2329.60;;;;;;4989707;28;20460;-75
2024/04/07 03:36:57;;;;;;;17.42;9.50;;;384.60;2329.60;;;;;;4993400;28;20014;-75
2024/04/07 03:39:22;;;;;;;17.90;9.45;;;384.70;2329.60;;;;;;4993594;28;20073;-79
2024/04/07 03:41:48;;;;;;;12.32;8.57;;;384.90;2329.60;;;;;;4993112;28;20484;-74
2024/04/07 03:44:15;;;;;;;16.00;9.73;;;384.80;2329.60;;;;;;4988862;28;20069;-74
2024/04/07 03:46:41;;;;;;;14.98;8.10;;;384.90;2329.60;;;;;;4991113;28;20018;-78
2024/04/07 03:49:07;;;;;;;27.58;10.80;;;409.60;2355.20;;;;;;4989118;28;20022;-75
2024/04/07 03:51:33;;;;;;;23.52;9.93;;;409.70;2355.20;;;;;;4990682;28;20033;-74
2024/04/07 03:53:59;;;;;;;18.10;8.63;;;409.80;2355.20;;;;;;4988369;28;20376;-80
2024/04/07 03:56:24;;;;;;;16.98;9.77;;;409.60;2355.20;;;;;;4992028;28;20038;-78
2024/04/07 03:58:50;;;;;;;16.23;8.73;;;409.60;2355.20;;;;;;4993221;28;20049;-75
2024/04/07 04:01:16;;;;;;;19.05;9.45;;;409.60;2355.20;;;;;;4991622;28;20038;-78
2024/04/07 04:03:42;;;;;;;20.52;10.18;;;409.60;2355.20;;;;;;4987759;28;20034;-74
2024/04/07 04:06:08;;;;;;;19.42;10.05;;;409.60;2355.20;;;;;;4992393;28;20023;-74
2024/04/07 04:08:34;;;;;;;11.93;8.77;;;409.60;2355.20;;;;;;4989508;28;20027;-75
2024/04/07 04:11:05;;;;;;;17.65;10.20;;;409.60;2355.20;;;;;;4975084;28;20563;-74
2024/04/07 04:13:31;;;;;;;17.10;9.15;;;409.60;2355.20;;;;;;4988813;28;20110;-75
2024/04/07 04:15:59;;;;;;;14.93;9.85;;;409.60;2355.20;;;;;;4990181;28;20129;-74
2024/04/07 04:18:25;;;;;;;14.40;9.65;;;409.60;2355.20;;;;;;4991928;28;20073;-74
2024/04/07 04:20:51;;;;;;;14.55;9.25;;;409.70;2355.20;;;;;;4995762;28;20046;-78
2024/04/07 04:23:17;;;;;;;13.10;9.60;;;409.70;2355.20;;;;;;4997024;28;20105;-73
2024/04/07 04:25:55;;;;;;;15.57;9.80;;;409.70;2355.20;;;;;;4995978;28;20492;-73
2024/04/07 04:28:22;;;;;;;17.20;10.27;;;384.90;2329.60;;;;;;4995547;28;20030;-73
2024/04/07 04:31:05;;;;;;;13.13;8.82;;;409.60;2355.20;;;;;;4991189;28;20026;-73
2024/04/07 04:33:31;;;;;;;13.13;9.20;;;384.90;2329.60;;;;;;4994879;28;20010;-78
2024/04/07 04:35:57;;;;;;;17.40;9.50;;;384.70;2329.60;;;;;;4989405;28;20480;-79
2024/04/07 04:38:23;;;;;;;13.77;9.63;;;384.70;2329.60;;;;;;4994050;28;20098;-79
2024/04/07 04:40:56;;;;;;;15.35;10.00;;;384.60;2329.60;;;;;;4989095;28;20468;-74
2024/04/07 04:43:23;;;;;;;15.00;9.52;;;384.60;2329.60;;;;;;4994106;28;20113;-79
2024/04/07 04:46:00;;;;;;;19.98;10.95;;;384.70;2329.60;;;;;;4994554;28;20437;-74
2024/04/07 04:48:26;;;;;;;15.18;9.63;;;384.60;2329.60;;;;;;4992171;28;20022;-74
2024/04/07 04:50:55;;;;;;;19.75;9.90;;;384.60;2329.60;;;;;;4997174;28;20076;-75
2024/04/07 04:53:21;;;;;;;17.83;9.38;;;384.60;2329.60;;;;;;4996816;28;20045;-74
2024/04/07 04:55:47;;;;;;;19.10;10.60;;;384.70;2329.60;;;;;;4995831;28;20491;-75
2024/04/07 04:58:12;;;;;;;17.67;10.23;;;384.70;2329.60;;;;;;4996562;28;20435;-75
2024/04/07 05:00:38;;;;;;;18.63;9.90;;;384.90;2329.60;;;;;;4996191;28;20041;-76
2024/04/07 05:03:04;;;;;;;14.73;10.10;;;409.60;2355.20;;;;;;4995808;28;20396;-75
2024/04/07 05:05:30;;;;;;;13.80;9.75;;;409.70;2355.20;;;;;;4996487;28;20408;-75
2024/04/07 05:07:56;;;;;;;15.70;10.00;;;409.70;2355.20;;;;;;4995600;28;20030;-75
2024/04/07 05:10:22;;;;;;;16.15;9.63;;;409.60;2355.20;;;;;;4989775;28;20026;-74
2024/04/07 05:12:48;;;;;;;16.08;10.25;;;384.60;2329.60;;;;;;4985570;28;20023;-73
2024/04/07 05:15:14;;;;;;;18.65;10.38;;;409.60;2355.20;;;;;;4986979;28;20065;-75
2024/04/07 05:17:39;;;;;;;17.08;10.75;;;409.60;2355.20;;;;;;4992213;28;20030;-77
2024/04/07 05:20:06;;;;;;;19.90;9.43;;;384.90;2329.60;;;;;;4987022;28;20064;-75
2024/04/07 05:22:33;;;;;;;21.40;12.20;;;384.70;2329.60;;;;;;4993395;28;20441;-75
2024/04/07 05:24:59;;;;;;;26.33;12.13;;;384.90;2329.60;;;;;;4990188;28;20424;-75
2024/04/07 05:27:25;;;;;;;15.73;10.30;;;384.90;2329.60;;;;;;4991056;28;20556;-74
2024/04/07 05:29:54;;;;;;;17.08;10.52;;;409.60;2355.20;;;;;;4985503;28;20026;-75
2024/04/07 05:32:19;;;;;;;18.38;10.13;;;409.70;2355.20;;;;;;4976357;28;20104;-77
2024/04/07 05:34:49;;;;;;;18.92;10.00;;;409.80;2355.20;;;;;;4969810;28;20034;-76
2024/04/07 05:37:14;;;;;;;17.98;10.25;;;410.00;2355.20;;;;;;4977728;28;20047;-77
2024/04/07 05:39:47;;;;;;;18.65;10.02;;;410.10;2355.20;;;;;;4963693;28;20108;-75
2024/04/07 05:42:13;;;;;;;18.10;9.45;;;410.20;2355.20;;;;;;4991155;28;20025;-76
2024/04/07 05:44:39;;;;;;;20.35;9.57;;;410.30;2355.20;;;;;;4985058;28;20038;-80
2024/04/07 05:47:05;;;;;;;19.30;10.40;;;410.50;2355.20;;;;;;4986851;28;20026;-75
2024/04/07 05:49:34;;;;;;;18.33;11.27;;;410.50;2355.20;;;;;;4985770;28;20046;-78
2024/04/07 05:52:00;;;;;;;25.00;10.35;;;435.30;2355.20;;;;;;4966226;28;20050;-75
2024/04/07 05:54:29;;;;;;;15.73;10.63;;;435.50;2355.20;;;;;;4987270;28;20476;-75
2024/04/07 05:56:55;;;;;;;15.48;10.15;;;435.60;2355.20;;;;;;4956139;28;20050;-78
2024/04/07 05:59:21;;;;;;;18.17;10.40;;;435.80;2355.20;;;;;;4965174;28;20465;-77
2024/04/07 06:01:47;;;;;;;18.52;10.02;;;435.90;2355.20;;;;;;4947332;28;20027;-77
2024/04/07 06:04:13;;;;;;;20.83;10.98;;;436.00;2355.20;;;;;;4947848;28;20027;-76
2024/04/07 06:06:38;;;;;;;18.02;9.90;;;436.10;2355.20;;;;;;4950969;28;20026;-73
2024/04/07 06:09:05;;;;;;;18.70;9.60;;;460.80;2380.80;;;;;;4966080;28;20404;-76
2024/04/07 06:11:31;;;;;;;19.27;9.35;;;461.00;2380.80;;;;;;4970865;28;20101;-79
2024/04/07 06:13:56;;;;;;;14.05;8.75;;;461.20;2380.80;;;;;;4966848;28;20113;-76
2024/04/07 06:16:22;;;;;;;24.65;9.57;;;461.30;2380.80;;;;;;4954857;28;20704;-78
2024/04/07 06:18:51;;;;;;;16.92;9.07;;;461.40;2380.80;;;;;;4964308;28;20050;-75
2024/04/07 06:21:19;;;;;;;13.63;9.70;;;461.50;2380.80;;;;;;4963649;28;20035;-77
2024/04/07 06:23:45;;;;;;;16.33;9.82;;;461.70;2380.80;;;;;;4966724;28;20123;-77
2024/04/07 06:26:11;;;;;;;18.08;9.40;;;486.50;2380.80;;;;;;4972624;28;20026;-76
2024/04/07 06:28:37;;;;;;;14.45;9.50;;;486.60;2380.80;;;;;;4969662;28;20041;-79
2024/04/07 06:31:06;;;;;;;13.45;9.27;;;486.70;2380.80;;;;;;4967397;28;20520;-72
2024/04/07 06:33:32;;;;;;;13.48;8.18;;;486.70;2380.80;;;;;;4966340;28;20121;-74
2024/04/07 06:35:58;;;;;;;11.75;8.43;;;486.80;2380.80;;;;;;4947926;28;20110;-74
2024/04/07 06:38:24;;;;;;;12.68;8.30;;;486.90;2380.80;;;;;;4971577;28;20042;-73
2024/04/07 06:40:50;;;;;;;17.00;8.82;;;487.00;2380.80;;;;;;4963549;28;20125;-74
2024/04/07 06:43:16;;;;;;;21.00;9.02;;;487.10;2380.80;;;;;;4964769;28;20102;-75
2024/04/07 06:45:42;;;;;;;12.80;8.48;;;487.20;2380.80;;;;;;4965212;28;20409;-80
2024/04/07 06:48:08;;;;;;;19.15;9.70;;;487.30;2380.80;;;;;;4968376;28;20023;-75
2024/04/07 06:50:35;;;;;;;18.38;9.70;;;512.10;2380.80;;;;;;4969102;28;20086;-74
2024/04/07 06:53:01;;;;;;;16.38;9.45;;;512.30;2380.80;;;;;;4970328;28;20468;-76
2024/04/07 06:55:27;;;;;;;15.27;10.05;;;512.40;2380.80;;;;;;4971982;28;20037;-74
2024/04/07 06:57:54;;;;;;;21.70;10.88;;;512.50;2380.80;;;;;;4989620;28;20085;-74
2024/04/07 07:00:20;;;;;;;18.65;10.38;;;512.70;2380.80;;;;;;4990851;28;20467;-74
2024/04/07 07:02:46;;;;;;;18.30;9.73;;;537.60;2406.40;;;;;;4985940;28;20030;-75
2024/04/07 07:05:12;;;;;;;14.80;10.68;;;537.80;2406.40;;;;;;4979625;28;20030;-74
2024/04/07 07:07:38;;;;;;;23.13;10.80;;;538.10;2406.40;;;;;;4982828;28;20499;-75
2024/04/07 07:10:04;;;;;;;21.15;11.07;;;538.40;2406.40;;;;;;4978155;28;20388;-73
2024/04/07 07:12:33;;;;;;;15.50;10.27;;;563.20;2432.00;;;;;;4983014;28;20022;-75
2024/04/07 07:14:59;;;;;;;22.70;10.80;;;563.60;2432.00;;;;;;4985399;28;20030;-78
2024/04/07 07:17:25;;;;;;;19.10;10.30;;;563.60;2432.00;;;;;;4983777;28;20022;-72
2024/04/07 07:19:51;;;;;;;16.33;9.35;;;563.70;2432.00;;;;;;4978144;28;20111;-70
2024/04/07 07:22:17;;;;;;;14.10;8.10;;;564.10;2432.00;;;;;;4980852;28;20161;-80
2024/04/07 07:24:43;;;;;;;18.17;8.45;;;588.80;2432.00;;;;;;4987142;28;20030;-72
2024/04/07 07:27:09;;;;;;;13.45;7.10;;;589.20;2432.00;;;;;;4991037;28;20027;-72
2024/04/07 07:29:35;;;;;;;15.00;7.35;;;589.20;2432.00;;;;;;4986818;28;20057;-76
2024/04/07 07:32:01;;;;;;;17.38;6.70;;;589.10;2432.00;;;;;;4986440;28;20054;-73
2024/04/07 07:34:27;;;;;;;16.15;6.50;;;589.20;2432.00;;;;;;4977687;28;20116;-77
2024/04/07 07:36:53;;;;;;;11.25;5.93;;;589.40;2432.00;;;;;;4984753;28;20124;-72
2024/04/07 07:39:19;;;;;;;17.23;6.53;;;589.50;2432.00;;;;;;4990765;28;20038;-72
2024/04/07 07:41:46;;;;;;;11.07;7.32;;;589.70;2406.40;;;;;;4991747;28;20080;-75
2024/04/07 07:44:12;;;;;;;12.18;6.43;;;614.50;2355.20;;;;;;4987508;28;20022;-74
2024/04/07 07:46:38;;;;;;;15.02;7.03;;;614.80;2278.40;;;;;;4985108;28;20040;-73
2024/04/07 07:49:06;;;;;;;11.93;6.20;;;615.10;2176.00;;;;;;4988279;28;20435;-72
2024/04/07 07:51:32;;;;;;;11.75;6.38;;;615.30;2201.60;;;;;;4985840;28;20392;-76
2024/04/07 07:53:58;;;;;;;10.73;6.22;;;640.10;2124.80;;;;;;4988328;28;20022;-75
2024/04/07 07:56:24;;;;;;;14.57;6.25;;;640.10;2150.40;;;;;;4984429;28;20054;-80
2024/04/07 07:58:50;;;;;;;11.80;6.10;;;615.20;2227.20;;;;;;4986160;28;20034;-75
2024/04/07 08:01:16;;;;;;;7.65;5.30;;;640.00;2124.80;;;;;;4986739;28;20395;-76
2024/04/07 08:03:42;;;;;;;11.52;6.00;;;615.20;2124.80;;;;;;4981046;28;20030;-79
2024/04/07 08:06:08;;;;;;;9.90;5.85;;;640.10;2099.20;;;;;;4972011;28;20031;-76
2024/04/07 08:08:34;;;;;;;8.40;4.35;;;640.40;2073.60;;;;;;4980005;28;20085;-75
2024/04/07 08:10:59;;;;;;;9.38;5.07;;;640.70;2048.00;;;;;;4979704;28;20030;-78
2024/04/07 08:13:25;;;;;;;10.60;5.32;;;640.60;1971.20;;;;;;4982401;28;20114;-76
2024/04/07 08:15:51;;;;;;;14.63;5.43;;;640.40;2022.40;;;;;;4986868;28;20026;-76
2024/04/07 08:18:17;;;;;;;13.60;5.13;;;640.80;1971.20;;;;;;4982023;28;20071;-73
2024/04/07 08:20:43;;;;;;;11.57;5.68;;;665.70;1920.00;;;;;;4981452;28;20088;-73
2024/04/07 08:23:10;;;;;;;10.75;5.25;;;665.80;1945.60;;;;;;4972930;28;20102;-70
2024/04/07 08:25:36;;;;;;;9.27;5.18;;;640.60;1920.00;;;;;;4986586;28;20050;-73
2024/04/07 08:28:04;;;;;;;24.58;13.00;;;640.80;1945.60;;;;;;4989062;28;20030;-74
2024/04/07 08:30:30;;;;;;;14.05;6.72;;;665.70;1971.20;;;;;;4984025;28;20046;-78
2024/04/07 08:32:56;;;;;;;18.50;6.88;;;665.90;1920.00;;;;;;4970596;28;20030;-79
2024/04/07 08:35:22;;;;;;;19.33;9.38;;;666.00;1920.00;;;;;;4974329;28;20034;-76
2024/04/07 08:37:49;;;;;;;14.77;6.55;;;666.30;1894.40;;;;;;4982424;28;20369;-80
2024/04/07 08:40:15;;;;;;;13.48;5.40;;;691.20;1817.60;;;;;;4961728;28;20047;-75
2024/04/07 08:42:42;;;;;;;8.75;4.25;;;691.30;1843.20;;;;;;4983254;28;20118;-77
2024/04/07 08:45:09;;;;;;;15.48;5.25;;;691.60;1740.80;;;;;;4988503;28;20030;-74
2024/04/07 08:47:37;;;;;;;8.55;3.97;;;691.80;1715.20;;;;;;4990322;28;20471;-77
2024/04/07 08:50:04;;;;;;;7.82;3.55;;;691.80;1689.60;;;;;;4983265;28;20468;-72
2024/04/07 08:52:30;;;;;;;6.43;3.40;;;691.80;1740.80;;;;;;4987905;28;20037;-72
2024/04/07 08:54:58;;;;;;;10.63;2.97;;;691.70;1715.20;;;;;;4984768;28;20424;-74
2024/04/07 08:57:24;;;;;;;10.40;4.25;;;691.90;1664.00;;;;;;4977256;28;20036;-73
2024/04/07 08:59:51;;;;;;;8.02;3.22;;;691.80;1664.00;;;;;;4972471;28;20365;-75
2024/04/07 09:02:19;;;;;;;11.50;3.78;;;691.90;1612.80;;;;;;4968887;28;20098;-73
2024/04/07 09:04:45;;;;;;;8.13;3.30;;;716.80;1638.40;;;;;;4967800;28;20031;-75
2024/04/07 09:07:11;;;;;;;8.15;3.50;;;717.00;1612.80;;;;;;4960850;28;20116;-76
2024/04/07 09:09:38;;;;;;;7.35;3.92;;;716.90;1587.20;;;;;;4960086;28;20046;-76
2024/04/07 09:12:05;;;;;;;8.30;3.38;;;717.00;1612.80;;;;;;4969545;28;20023;-74
2024/04/07 09:14:33;;;;;;;9.73;3.10;;;717.00;1612.80;;;;;;4966578;28;20035;-75
2024/04/07 09:17:08;;;;;;;4.38;2.42;;;717.10;1561.60;;;;;;4976640;28;20073;-74
2024/04/07 09:19:35;;;;;;;;;;;717.50;1536.00;;;;;;4968433;28;20515;-74
2024/04/07 09:22:02;;;;;;;16.10;3.45;;;742.40;1536.00;;;;;;4965161;28;20260;-77
2024/04/07 09:24:30;;;;;;;9.30;3.42;;;;;;;;;;4963808;28;20022;-74
2024/04/07 09:27:06;;;;;;;7.07;3.05;;;742.80;1510.40;;;;;;4969203;28;20233;-73
2024/04/07 09:29:34;;;;;;;7.85;3.72;;;743.00;1484.80;;;;;;4971103;28;20027;-74
2024/04/07 09:32:01;;;;;;;6.43;2.72;;;743.00;1459.20;;;;;;4972495;28;20025;-73
2024/04/07 09:34:28;;;;;;;7.88;3.58;;;743.00;1484.80;;;;;;4970045;28;20027;-74
2024/04/07 09:36:54;;;;;;;7.05;3.10;;;743.00;1484.80;;;;;;4975494;28;20093;-74
2024/04/07 09:39:20;;;;;;;6.45;2.58;;;743.20;1484.80;;;;;;4974126;28;20034;-75
2024/04/07 09:41:47;;;;;;;6.30;2.88;;;743.00;1510.40;;;;;;4967937;28;20066;-80
2024/04/07 09:44:19;;;;;;;7.13;3.03;;;743.10;1459.20;;;;;;4976188;28;20030;-79
2024/04/07 09:46:45;;;;;;;7.90;3.58;;;742.90;1510.40;;;;;;4966401;28;20031;-79
2024/04/07 09:49:12;;;;;;;7.38;2.80;;;;;;;;;;4970421;28;20030;-79
2024/04/07 09:52:01;;;;;;;5.20;2.60;;;768.00;1433.60;;;;;;4968579;28;20039;-74
2024/04/07 09:54:47;;;;;;;6.07;2.47;;;743.20;1408.00;;;;;;4965624;28;20365;-79
2024/04/07 09:57:13;;;;;;;;;;;768.40;1382.40;;;;;;4961419;28;20038;-77
2024/04/07 09:59:42;;;;;;;6.07;2.80;;;768.60;1356.80;;;;;;4970314;28;20260;-78
2024/04/07 10:02:10;;;;;;;5.50;2.75;;;768.70;1382.40;;;;;;4973454;28;20061;-78
2024/04/07 10:04:38;;;;;;;6.20;2.72;;;768.80;1382.40;;;;;;4955501;28;20032;-76
2024/04/07 10:07:05;;;;;;;6.18;2.35;;;768.80;1356.80;;;;;;4973960;28;20027;-78
2024/04/07 10:09:32;;;;;;;10.18;2.60;;;768.80;1331.20;;;;;;4962866;28;20034;-77
2024/04/07 10:11:58;;;;;;;4.18;2.38;;;768.60;1356.80;;;;;;4972223;28;20089;-73
2024/04/07 10:14:35;;;;;;;7.72;2.58;;;768.70;1356.80;;;;;;4974712;28;20026;-72
2024/04/07 10:17:01;;;;;;;6.25;3.13;;;768.80;1331.20;;;;;;4965242;28;20033;-77
2024/04/07 10:19:27;;;;;;;5.55;2.53;;;768.90;1331.20;;;;;;4969665;28;20455;-72
2024/04/07 10:21:54;;;;;;;4.15;2.30;;;793.60;1356.80;;;;;;4967021;28;20502;-76
2024/04/07 10:24:20;;;;;;;3.80;2.13;;;768.90;1280.00;;;;;;4971248;28;20101;-74
2024/04/07 10:26:58;;;;;;;4.95;2.35;;;768.90;1305.60;;;;;;4973805;28;20045;-73
2024/04/07 10:29:30;;;;;;;6.60;2.50;;;768.10;1356.80;;;;;;4960787;28;20019;-76
2024/04/07 10:31:56;;;;;;;6.05;3.03;;;768.30;1356.80;;;;;;4969803;28;20058;-75
2024/04/07 10:34:22;;;;;;;9.50;2.30;;;768.60;1331.20;;;;;;4974007;28;20484;-77
2024/04/07 10:36:53;;;;;;;10.07;2.13;;;793.60;1331.20;;;;;;4971843;28;20041;-74
2024/04/07 10:39:23;;;;;;;4.88;2.28;;;793.60;1331.20;;;;;;4970546;28;20043;-76
2024/04/07 10:41:50;;;;;;;7.03;2.40;;;793.70;1331.20;;;;;;4967363;28;20381;-74
2024/04/07 10:44:16;;;;;;;4.20;2.20;;;793.60;1331.20;;;;;;4964821;28;20077;-75
2024/04/07 10:46:42;;;;;;;4.22;1.85;;;793.90;1280.00;;;;;;4961501;28;20039;-75
2024/04/07 10:49:08;;;;;;;4.88;1.90;;;794.10;1228.80;;;;;;4961420;28;20088;-74
2024/04/07 10:51:36;;;;;;;2.95;1.60;;;793.90;1254.40;;;;;;4967330;28;20030;-77
2024/04/07 10:54:04;;;;;;;3.97;1.58;;;768.70;1228.80;;;;;;4961211;28;20109;-73
2024/04/07 10:56:31;;;;;;;6.18;2.00;;;793.60;1177.60;;;;;;4978024;28;20042;-74
2024/04/07 10:58:57;;;;;;;5.18;1.95;;;793.70;1228.80;;;;;;4962356;28;20058;-74
2024/04/07 11:01:24;;;;;;;7.32;1.98;;;793.60;1228.80;;;;;;4988391;28;20026;-78
2024/04/07 11:03:59;;;;;;;3.25;1.52;;;793.90;1228.80;;;;;;4983074;28;20014;-77
2024/04/07 11:06:28;;;;;;;6.03;2.25;;;793.90;1203.20;;;;;;4982978;28;20503;-77
2024/04/07 11:08:54;;;;;;;4.10;1.98;;;793.90;1203.20;;;;;;4990476;28;20366;-76
2024/04/07 11:11:22;;;;;;;8.57;1.98;;;793.90;1203.20;;;;;;4991459;28;20019;-79
2024/04/07 11:13:48;;;;;;;6.47;1.88;;;793.90;1203.20;;;;;;4988197;28;20105;-74
2024/04/07 11:16:14;;;;;;;3.65;1.88;;;794.30;1177.60;;;;;;4986254;28;20028;-77
2024/04/07 11:18:42;;;;;;;4.45;1.90;;;794.20;1203.20;;;;;;4985599;28;20396;-75
2024/04/07 11:21:08;;;;;;;4.50;1.80;;;819.20;1177.60;;;;;;4988275;28;20039;-74
2024/04/07 11:23:36;;;;;;;5.22;2.67;;;819.40;1152.00;;;;;;4984285;28;20026;-76
2024/04/07 11:26:03;;;;;;;5.68;2.38;;;819.60;1152.00;;;;;;4984399;28;20026;-75
2024/04/07 11:28:29;;;;;;;6.13;2.38;;;819.40;1152.00;;;;;;4991308;28;20068;-76
2024/04/07 11:30:56;;;;;;;6.03;2.42;;;819.60;1126.40;;;;;;4985788;28;20054;-78
2024/04/07 11:33:25;;;;;;;8.15;2.92;;;819.60;1177.60;;;;;;4966515;28;20030;-77
2024/04/07 11:35:52;;;;;;;7.60;3.80;;;819.70;1203.20;;;;;;4982219;28;20022;-77
2024/04/07 11:38:19;;;;;;;5.55;3.20;;;794.50;1152.00;;;;;;4973344;28;20064;-75
2024/04/07 11:40:45;;;;;;;8.85;4.60;;;794.40;1203.20;;;;;;4981499;28;20046;-77
2024/04/07 11:43:11;;;;;;;9.80;4.82;;;819.20;1177.60;;;;;;4970380;28;20046;-75
2024/04/07 11:45:38;;;;;;;7.50;3.80;;;819.30;1177.60;;;;;;4983819;28;20057;-72
2024/04/07 11:48:06;;;;;;;5.53;2.67;;;819.30;1177.60;;;;;;4986194;28;20023;-73
2024/04/07 11:50:32;;;;;;;7.68;2.97;;;819.30;1126.40;;;;;;4986866;28;20058;-77
2024/04/07 11:52:57;;;;;;;3.78;2.40;;;819.20;1152.00;;;;;;4985963;28;20019;-79
2024/04/07 11:55:24;;;;;;;7.15;2.17;;;794.50;1126.40;;;;;;4971744;28;20089;-77
2024/04/07 11:57:50;;;;;;;3.75;2.22;;;819.20;1177.60;;;;;;4990984;28;20400;-76
2024/04/07 12:00:16;;;;;;;9.07;1.83;;;819.30;1152.00;;;;;;4983091;28;20053;-73
2024/04/07 12:02:42;;;;;;;4.43;1.88;;;794.30;1152.00;;;;;;4987072;28;20046;-74
2024/04/07 12:05:09;;;;;;;3.35;2.00;;;794.40;1126.40;;;;;;4981679;28;20473;-74
2024/04/07 12:07:35;;;;;;;3.38;1.80;;;819.30;1126.40;;;;;;4986185;28;20069;-74
2024/04/07 12:10:02;;;;;;;6.35;2.03;;;819.30;1126.40;;;;;;4981401;28;20031;-73
2024/04/07 12:12:28;;;;;;;8.25;2.15;;;794.50;1203.20;;;;;;4983773;28;20121;-75